Gulnare, Kentucky
Current Conditions -  °F | °C
As of 9:15 PM on Wednesday 17 Dec 2014 (Local Time) from KPBX Reporting Station
Broken Clouds Broken Clouds  
Wind Chill: 30°   Ceiling: 2300
Heat Index: 30°   Visibility: 10mi
Dew Point: 26°   Wind: 3mph
Humidity: 85%   Direction: 270°W
Pressure: 30.21"   Gusts: NA
Location:  37.5348°N, 82.513°W
Report Text: KPBX 180215Z AUTO 27003KT 10SM BKN023 M01/M03 A3021 RMK AO2 T10101032
Loading
Personal Weather Stations






























Interactive Weather Map New forecast layout! Learn more

10-Day Weather Forecast

Advertisements
Track Severe Weather on mobile